createdAt,value
2023-05-15T00:00:20.912Z,0.0000
2023-05-15T00:01:27.901Z,0.0000
2023-05-15T00:06:05.340Z,0.0000
2023-05-15T00:08:07.159Z,0.0000
2023-05-15T00:09:08.601Z,0.0000
2023-05-15T00:10:09.519Z,0.0000
2023-05-15T00:11:11.585Z,0.0000
2023-05-15T00:12:13.503Z,0.0000
2023-05-15T00:13:15.012Z,0.0000
2023-05-15T00:14:15.685Z,0.0000
2023-05-15T00:15:16.929Z,0.0000
2023-05-15T00:16:19.457Z,0.0000
2023-05-15T00:17:20.140Z,0.0000
2023-05-15T00:18:20.241Z,0.0000
2023-05-15T00:19:22.469Z,0.0000
2023-05-15T00:24:29.236Z,0.0000
2023-05-15T00:25:29.838Z,0.0000
2023-05-15T00:30:07.966Z,0.0000
2023-05-15T00:31:10.223Z,0.0000
2023-05-15T00:32:10.370Z,0.0000
2023-05-15T00:33:11.148Z,0.0000
2023-05-15T00:34:12.462Z,0.0000
2023-05-15T00:35:13.241Z,0.0000
2023-05-15T00:36:14.234Z,0.0000
2023-05-15T00:37:15.863Z,0.0000
2023-05-15T00:38:17.942Z,0.0000
2023-05-15T00:39:18.053Z,0.0000
2023-05-15T00:40:20.217Z,0.0000
2023-05-15T00:41:22.393Z,0.0000
2023-05-15T00:42:24.571Z,0.0000
2023-05-15T00:44:26.462Z,0.0000
2023-05-15T00:45:28.615Z,0.0000
2023-05-15T01:00:48.260Z,0.0000
2023-05-15T01:01:49.176Z,0.0000
2023-05-15T01:02:51.216Z,0.0000
2023-05-15T01:03:52.520Z,0.0000
2023-05-15T01:04:53.788Z,0.0000
2023-05-15T01:05:54.978Z,0.0000
2023-05-15T01:06:55.569Z,0.0000
2023-05-15T01:07:56.727Z,0.0000
2023-05-15T01:08:57.829Z,0.0000
2023-05-15T01:09:59.458Z,0.0000
2023-05-15T01:11:02.049Z,0.0000
2023-05-15T01:12:02.860Z,0.0000
2023-05-15T01:13:04.235Z,0.0000
2023-05-15T01:14:06.439Z,0.0000
2023-05-15T01:15:08.633Z,0.0000
2023-05-15T01:16:10.029Z,0.0000
2023-05-15T01:20:16.145Z,0.0000
2023-05-15T01:21:17.743Z,0.0000
2023-05-15T01:22:18.241Z,0.0000
2023-05-15T01:23:19.742Z,0.0000
2023-05-15T01:24:21.343Z,0.0000
2023-05-15T01:25:21.361Z,0.0000
2023-05-15T01:26:22.124Z,0.0000
2023-05-15T01:27:22.773Z,0.0000
2023-05-15T01:28:24.663Z,0.0000
2023-05-15T01:29:24.722Z,0.0000
2023-05-15T01:30:25.340Z,0.0000
2023-05-15T01:31:25.921Z,0.0000
2023-05-15T01:32:26.371Z,0.0000
2023-05-15T01:33:27.429Z,0.0000
2023-05-15T01:34:29.234Z,0.0000
2023-05-15T01:35:31.139Z,0.0000
2023-05-15T01:36:31.442Z,0.0000
2023-05-15T01:37:33.133Z,0.0000
2023-05-15T01:38:35.193Z,0.0000
2023-05-15T01:39:37.096Z,0.0000
2023-05-15T01:40:37.821Z,0.0000
2023-05-15T01:41:38.862Z,0.0000
2023-05-15T01:42:39.167Z,0.0000
2023-05-15T01:43:39.349Z,0.0000
2023-05-15T01:44:41.754Z,0.0000
2023-05-15T01:45:41.889Z,0.0000
2023-05-15T01:46:43.774Z,0.0000
2023-05-15T01:47:44.447Z,0.0000
2023-05-15T01:48:45.702Z,0.0000
2023-05-15T01:49:46.750Z,0.0000
2023-05-15T01:50:49.609Z,0.0000
2023-05-15T01:51:50.484Z,0.0000
2023-05-15T01:52:51.469Z,0.0000
2023-05-15T01:53:54.046Z,0.0000
2023-05-15T01:55:55.974Z,0.0000
2023-05-15T01:56:58.617Z,0.0000
2023-05-15T01:58:01.022Z,0.0000
2023-05-15T01:59:01.197Z,0.0000
2023-05-15T02:00:02.872Z,0.0000
2023-05-15T02:01:05.202Z,0.0000
2023-05-15T02:02:06.590Z,0.0000
2023-05-15T02:03:07.867Z,0.0000
2023-05-15T02:05:09.110Z,0.0000
2023-05-15T02:06:09.900Z,0.0000
2023-05-15T02:07:11.870Z,0.0000
2023-05-15T02:08:14.580Z,0.0000
2023-05-15T02:09:16.275Z,0.0000
2023-05-15T02:10:17.464Z,0.0000
2023-05-15T02:11:18.626Z,0.0000
2023-05-15T02:18:25.664Z,0.0000
2023-05-15T02:19:26.617Z,0.0000
2023-05-15T02:20:28.226Z,0.0000
2023-05-15T02:21:28.531Z,0.0000
2023-05-15T02:22:29.195Z,0.0000
2023-05-15T02:23:29.373Z,0.0000
2023-05-15T02:24:30.560Z,0.0000
2023-05-15T02:25:32.740Z,0.0000
2023-05-15T02:26:32.941Z,0.0000
2023-05-15T02:27:35.048Z,0.0000
2023-05-15T02:28:35.685Z,0.0000
2023-05-15T02:29:37.075Z,0.0000
2023-05-15T02:31:38.787Z,0.0000
2023-05-15T02:32:39.924Z,0.0000
2023-05-15T02:33:41.686Z,0.0000
2023-05-15T02:34:43.603Z,0.0000
2023-05-15T02:35:44.288Z,0.0000
2023-05-15T02:36:45.952Z,0.0000
2023-05-15T02:37:46.455Z,0.0000
2023-05-15T02:39:46.806Z,0.0000
2023-05-15T02:40:48.041Z,0.0000
2023-05-15T02:41:49.857Z,0.0000
2023-05-15T02:42:50.236Z,0.0000
2023-05-15T02:43:51.353Z,0.0000
2023-05-15T02:44:53.845Z,0.0000
2023-05-15T02:46:56.378Z,0.0000
2023-05-15T02:47:57.372Z,0.0000
2023-05-15T02:48:59.240Z,0.0000
2023-05-15T02:50:01.582Z,0.0000
2023-05-15T02:53:04.780Z,0.0000
2023-05-15T02:54:05.174Z,0.0000
2023-05-15T02:55:05.860Z,0.0000
2023-05-15T02:56:07.619Z,0.0000
2023-05-15T02:57:09.485Z,0.0000
2023-05-15T02:58:10.300Z,0.0000
2023-05-15T02:59:10.907Z,0.0000
2023-05-15T03:00:11.493Z,0.0000
2023-05-15T03:01:12.245Z,0.0000
2023-05-15T03:02:14.068Z,0.0000
2023-05-15T03:03:15.948Z,0.0000
2023-05-15T03:04:17.079Z,0.0000
2023-05-15T03:05:18.402Z,0.0000
2023-05-15T03:06:20.473Z,0.0000
2023-05-15T03:07:22.447Z,0.0000
2023-05-15T03:08:25.238Z,0.0000
2023-05-15T03:13:27.808Z,0.0000
2023-05-15T03:14:28.362Z,0.0000
2023-05-15T03:15:29.949Z,3.8462
2023-05-15T03:16:30.826Z,4.0000
2023-05-15T03:17:31.934Z,3.5000
2023-05-15T03:18:32.375Z,1.5385
2023-05-15T03:19:34.444Z,4.0000
2023-05-15T03:20:35.566Z,5.0769
2023-05-15T03:21:36.481Z,4.5000
2023-05-15T03:22:38.090Z,7.8333
2023-05-15T03:23:47.035Z,7.5200
2023-05-15T03:33:26.674Z,36.5926
2023-05-15T03:34:28.405Z,42.6154
2023-05-15T03:35:28.473Z,46.3077
2023-05-15T03:36:29.926Z,50.5000
2023-05-15T03:37:30.997Z,57.0000
2023-05-15T03:38:32.471Z,64.3200
2023-05-15T03:39:32.626Z,73.2800
2023-05-15T03:40:35.218Z,87.5556
2023-05-15T03:41:36.357Z,101.8462
2023-05-15T03:42:38.370Z,118.0741
2023-05-15T03:44:38.540Z,157.6923
2023-05-15T03:46:40.757Z,206.4000
2023-05-15T03:47:43.617Z,232.1600
2023-05-15T03:48:43.621Z,252.3478
2023-05-15T03:49:45.514Z,267.5000
2023-05-15T03:50:46.635Z,288.9231
2023-05-15T03:51:48.177Z,324.5000
2023-05-15T03:52:49.319Z,373.1200
2023-05-15T03:53:50.877Z,406.5000
2023-05-15T03:54:52.305Z,443.1667
2023-05-15T03:55:52.701Z,480.3200
2023-05-15T03:56:54.055Z,497.8333
2023-05-15T03:57:55.812Z,507.7037
2023-05-15T03:58:56.678Z,534.7692
2023-05-15T03:59:58.619Z,557.6667
2023-05-15T04:00:59.628Z,575.5385
2023-05-15T04:02:04.167Z,567.5385
2023-05-15T04:03:03.206Z,603.6364
2023-05-15T04:06:07.414Z,758.6154
2023-05-15T04:07:08.033Z,835.3043
2023-05-15T04:09:09.104Z,892.3333
2023-05-15T04:10:10.903Z,894.8333
2023-05-15T04:11:11.585Z,930.6087
2023-05-15T04:12:12.323Z,939.5200
2023-05-15T04:13:12.752Z,993.0435
2023-05-15T04:14:13.612Z,1078.3077
2023-05-15T04:15:13.882Z,1104.3334
2023-05-15T04:16:15.165Z,1289.0435
2023-05-15T04:17:16.185Z,1434.0800
2023-05-15T04:18:17.637Z,1482.2609
2023-05-15T04:19:17.717Z,1548.6957
2023-05-15T04:20:18.579Z,1555.8260
2023-05-15T04:21:19.204Z,1548.4800
2023-05-15T04:33:32.481Z,2671.3044
2023-05-15T04:36:34.903Z,2938.8333
2023-05-15T04:37:36.891Z,2809.7778
2023-05-15T04:38:38.391Z,2604.8333
2023-05-15T04:39:38.624Z,2916.3333
2023-05-15T04:40:40.708Z,3308.5925
2023-05-15T04:41:41.321Z,3489.8462
2023-05-15T04:42:43.447Z,3655.6667
2023-05-15T04:43:46.256Z,3650.6155
2023-05-15T04:48:49.236Z,3540.9600
2023-05-15T04:49:51.557Z,3757.1853
2023-05-15T04:50:52.705Z,4039.1667
2023-05-15T04:53:57.464Z,4609.0435
2023-05-15T04:59:00.313Z,4318.8335
2023-05-15T05:00:00.763Z,4502.5000
2023-05-15T05:01:03.937Z,4642.0869
2023-05-15T05:02:02.860Z,4967.5200
2023-05-15T05:03:03.272Z,5222.3999
2023-05-15T05:04:05.453Z,5186.3335
2023-05-15T05:05:07.531Z,5471.8335
2023-05-15T05:06:07.667Z,5522.7827
2023-05-15T05:07:09.249Z,5301.0435
2023-05-15T05:08:11.501Z,5142.8335
2023-05-15T05:15:17.323Z,5837.6294
2023-05-15T05:16:18.022Z,6032.6401
2023-05-15T05:17:19.589Z,6023.5557
2023-05-15T05:18:21.827Z,5784.5928
2023-05-15T05:19:22.042Z,6018.9229
2023-05-15T05:20:24.296Z,6179.0000
2023-05-15T05:21:24.680Z,6135.6523
2023-05-15T05:30:36.178Z,6036.7690
2023-05-15T05:31:36.308Z,6396.9600
2023-05-15T05:32:38.636Z,6738.8149
2023-05-15T05:33:39.436Z,7087.8398
2023-05-15T05:34:39.495Z,7364.1602
2023-05-15T05:35:40.620Z,7613.2798
2023-05-15T05:36:42.472Z,7751.0000
2023-05-15T05:37:43.290Z,7782.0869
2023-05-15T05:38:45.243Z,8236.0000
2023-05-15T05:39:46.013Z,8488.3076
2023-05-15T05:40:48.071Z,8632.3330
2023-05-15T05:41:50.300Z,8768.1670
2023-05-15T05:42:51.491Z,8888.1602
2023-05-15T05:43:54.307Z,8915.2305
2023-05-15T05:44:54.271Z,8746.0801
2023-05-15T05:45:55.772Z,8529.1201
2023-05-15T05:46:57.609Z,8206.0000
2023-05-15T05:48:00.224Z,7960.0000
2023-05-15T05:49:02.588Z,7830.8569
2023-05-15T05:50:03.763Z,7874.1538
2023-05-15T05:51:03.766Z,7962.0000
2023-05-15T05:52:06.470Z,8121.7778
2023-05-15T05:55:07.078Z,8828.1543
2023-05-15T05:56:07.162Z,8729.5381
2023-05-15T05:57:10.041Z,8464.0000
2023-05-15T06:03:14.676Z,6688.1602
2023-05-15T06:07:17.633Z,5385.5654
2023-05-15T06:08:19.763Z,5212.0000
2023-05-15T06:09:19.996Z,5011.6924
2023-05-15T06:10:22.146Z,5313.5386
2023-05-15T06:11:25.384Z,5971.1665
2023-05-15T06:12:25.079Z,5665.9131
2023-05-15T06:13:26.680Z,5133.6924
2023-05-15T06:14:28.008Z,4896.9600
2023-05-15T06:15:28.635Z,4597.0435
2023-05-15T06:16:29.088Z,4168.6665
2023-05-15T06:17:31.175Z,3949.1667
2023-05-15T06:18:31.604Z,4036.9600
2023-05-15T06:19:33.832Z,4484.3198
2023-05-15T06:20:35.578Z,4802.1538
2023-05-15T06:21:38.172Z,4557.0771
2023-05-15T06:26:43.487Z,6452.0000
2023-05-15T06:27:43.628Z,7286.7690
2023-05-15T06:28:43.831Z,7456.7690
2023-05-15T06:29:45.382Z,7464.4614
2023-05-15T06:30:46.148Z,7627.8398
2023-05-15T06:31:48.477Z,7895.6523
2023-05-15T06:32:51.124Z,7816.6152
2023-05-15T06:34:52.616Z,7921.1851
2023-05-15T06:37:56.474Z,7373.9131
2023-05-15T06:38:55.562Z,8431.5000
2023-05-15T06:39:57.369Z,8130.2222
2023-05-15T06:40:58.588Z,7127.5386
2023-05-15T06:42:59.267Z,5162.1538
2023-05-15T06:48:32.738Z,4294967296.0000
2023-05-15T06:49:33.136Z,4294967296.0000
2023-05-15T06:50:33.511Z,4294967296.0000
2023-05-15T06:51:34.406Z,4294967296.0000
2023-05-15T06:52:34.443Z,4294967296.0000
2023-05-15T06:53:35.002Z,4294967296.0000
2023-05-15T06:54:35.330Z,4294967296.0000
2023-05-15T06:59:38.086Z,4294967296.0000
2023-05-15T07:03:39.961Z,4294967296.0000
2023-05-15T07:04:57.802Z,4294967296.0000
2023-05-15T07:07:15.837Z,14337.4814
2023-05-15T07:08:15.853Z,15964.3203
2023-05-15T07:09:16.046Z,16508.8008
2023-05-15T07:10:17.202Z,16165.9199
2023-05-15T07:11:19.143Z,15216.6670
2023-05-15T07:12:19.958Z,14723.2002
2023-05-15T07:14:21.322Z,15924.1543
2023-05-15T07:17:24.597Z,19068.4453
2023-05-15T07:18:24.718Z,19357.5391
2023-05-15T07:19:25.762Z,20760.3203
2023-05-15T07:20:30.307Z,23020.3086
2023-05-15T07:21:28.017Z,24656.0000
2023-05-15T07:22:28.096Z,26130.4609
2023-05-15T07:23:28.436Z,26676.9238
2023-05-15T07:24:28.438Z,26327.0391
2023-05-15T07:25:30.414Z,25197.3340
2023-05-15T07:26:38.441Z,23800.6152
2023-05-15T07:27:31.977Z,22378.6660
2023-05-15T07:28:32.137Z,21037.5391
2023-05-15T07:29:34.021Z,19339.8516
2023-05-15T07:30:35.822Z,17230.2227
2023-05-15T07:31:37.002Z,14502.1543
2023-05-15T07:32:38.442Z,11842.9229
2023-05-15T07:33:40.084Z,10059.6924
2023-05-15T07:34:40.882Z,9212.6396
2023-05-15T07:35:41.057Z,8878.4619
2023-05-15T07:36:41.666Z,8965.1670
2023-05-15T07:42:47.523Z,5428.4443
2023-05-15T07:43:47.723Z,4723.5386
2023-05-15T07:44:49.977Z,4065.8462
2023-05-15T07:45:50.642Z,3560.1599
2023-05-15T07:46:51.937Z,3370.7693
2023-05-15T07:47:53.709Z,3392.9231
2023-05-15T07:48:52.966Z,3540.6399
2023-05-15T07:49:54.133Z,3713.4399
2023-05-15T07:50:56.521Z,3853.5000
2023-05-15T07:51:57.954Z,3883.0769
2023-05-15T07:54:00.114Z,3743.6924
2023-05-15T07:56:02.634Z,3893.4814
2023-05-15T07:57:02.934Z,3903.2307
2023-05-15T07:58:02.813Z,3867.8401
2023-05-15T07:59:03.947Z,3905.5386
2023-05-15T08:02:07.524Z,4521.5386
2023-05-15T08:03:09.197Z,4996.3076
2023-05-15T08:11:16.924Z,12903.0000
2023-05-15T08:12:18.647Z,13301.1201
2023-05-15T08:13:19.392Z,13648.6953
2023-05-15T08:14:22.408Z,13921.6670
2023-05-15T08:15:23.604Z,14312.1738
2023-05-15T08:16:23.669Z,15042.9561
2023-05-15T08:17:25.515Z,16878.4004
2023-05-15T08:18:27.176Z,19113.4824
2023-05-15T08:19:28.074Z,21552.0000
2023-05-15T08:20:28.662Z,23176.6152
2023-05-15T08:21:29.461Z,23380.9238
2023-05-15T08:22:29.708Z,23841.2305
2023-05-15T08:23:31.028Z,23194.8809
2023-05-15T08:27:35.766Z,24292.0000
2023-05-15T08:30:40.258Z,26340.9238
2023-05-15T08:31:40.537Z,27516.3086
2023-05-15T08:32:41.875Z,28732.1602
2023-05-15T08:33:42.318Z,29917.3340
2023-05-15T08:34:42.884Z,28779.1309
2023-05-15T08:35:43.708Z,29015.6523
2023-05-15T08:36:45.221Z,28961.3906
2023-05-15T08:37:44.758Z,30085.8184
2023-05-15T08:38:46.697Z,32097.2305
2023-05-15T08:40:47.150Z,34294.2617
2023-05-15T08:41:47.642Z,33748.0000
2023-05-15T08:43:49.298Z,33848.3203
2023-05-15T08:44:49.813Z,37058.6680
2023-05-15T08:45:50.765Z,35100.0000
2023-05-15T08:49:52.984Z,26640.6953
2023-05-15T08:50:53.871Z,28221.2168
2023-05-15T08:51:54.721Z,31590.1543
2023-05-15T08:52:56.695Z,35118.0781
2023-05-15T08:53:57.248Z,37082.4336
2023-05-15T08:54:58.941Z,35259.8242
2023-05-15T08:55:59.480Z,32843.0781
2023-05-15T08:57:00.898Z,33240.6172
2023-05-15T08:58:00.865Z,32839.2734
2023-05-15T08:59:03.057Z,33793.1836
2023-05-15T09:00:04.277Z,35043.6914
2023-05-15T09:02:06.894Z,39588.2656
2023-05-15T09:03:07.200Z,41216.0000
2023-05-15T09:04:07.367Z,40979.4766
2023-05-15T09:05:08.999Z,41232.9414
2023-05-15T09:06:10.702Z,45683.6914
2023-05-15T09:07:12.561Z,39013.9258
2023-05-15T09:08:14.182Z,38726.1523
2023-05-15T09:09:15.917Z,38037.3320
2023-05-15T09:10:17.205Z,38752.0000
2023-05-15T09:11:18.536Z,37708.8008
2023-05-15T09:12:51.373Z,33914.6680
2023-05-15T09:13:51.530Z,31696.0000
2023-05-15T09:15:23.803Z,23280.0000
2023-05-15T09:16:25.691Z,18592.0000
2023-05-15T09:23:05.516Z,14838.5879
2023-05-15T09:24:06.865Z,12586.4619
2023-05-15T09:25:08.879Z,9041.7773
2023-05-15T09:26:09.968Z,7278.7690
2023-05-15T09:27:11.394Z,6189.0771
2023-05-15T09:28:12.297Z,5628.1904
2023-05-15T09:29:13.555Z,5452.3198
2023-05-15T09:30:14.577Z,5400.3638
2023-05-15T09:31:14.934Z,5514.9229
2023-05-15T09:32:16.871Z,5889.3911
2023-05-15T09:33:18.202Z,6470.0000
2023-05-15T09:34:18.853Z,7365.5000
2023-05-15T09:35:22.898Z,8197.0908
2023-05-15T09:36:22.254Z,8665.1426
2023-05-15T09:37:23.405Z,8471.6367
2023-05-15T09:38:24.807Z,7697.8184
2023-05-15T09:39:25.228Z,6951.0908
2023-05-15T09:40:26.607Z,6440.9092
2023-05-15T09:43:30.408Z,6474.7827
2023-05-15T09:44:31.705Z,6633.1201
2023-05-15T09:46:32.635Z,6676.3076
2023-05-15T09:47:33.069Z,6631.1304
2023-05-15T09:48:33.843Z,6738.0801
2023-05-15T09:49:34.473Z,7065.0435
2023-05-15T09:52:34.819Z,8600.1602
2023-05-15T09:55:36.807Z,12122.6152
2023-05-15T09:56:37.281Z,15152.0000
2023-05-15T09:57:39.574Z,19376.5918
2023-05-15T09:58:40.747Z,25214.6660
2023-05-15T10:08:49.737Z,46066.4609
2023-05-15T10:09:51.461Z,45261.5391
2023-05-15T10:11:30.282Z,46696.0000
2023-05-15T10:12:31.309Z,45921.3320
2023-05-15T10:17:05.161Z,44461.7148
2023-05-15T10:18:06.470Z,46636.8008
2023-05-15T10:19:07.876Z,49411.6914
2023-05-15T10:27:15.211Z,53541.3320
2023-05-15T10:31:22.404Z,43032.6172
2023-05-15T10:44:36.733Z,20948.9238
2023-05-15T10:45:37.927Z,20235.0762
2023-05-15T10:46:38.891Z,19825.2305
2023-05-15T10:47:39.245Z,19511.3848
2023-05-15T10:48:40.954Z,18832.0000
2023-05-15T10:52:44.657Z,14763.3330
2023-05-15T11:02:21.765Z,9784.1543
2023-05-15T11:03:24.119Z,10344.0000
2023-05-15T11:05:25.885Z,12528.0000
2023-05-15T11:07:26.753Z,14465.4404
2023-05-15T11:08:27.075Z,15082.4004
2023-05-15T11:13:31.015Z,20107.0762
2023-05-15T11:14:32.696Z,25421.3340
2023-05-15T11:17:35.056Z,63605.3320
2023-05-15T11:24:16.890Z,88301.3359
2023-05-15T11:25:20.294Z,77965.5391
2023-05-15T11:26:20.666Z,70986.2422
2023-05-15T11:27:20.749Z,67512.0000
2023-05-15T11:28:23.377Z,85224.2969
2023-05-15T11:29:24.351Z,95094.1562
2023-05-15T11:30:27.170Z,94464.0000
2023-05-15T11:31:28.203Z,93165.5391
2023-05-15T11:32:29.515Z,89385.8438
2023-05-15T11:33:30.555Z,91656.6172
2023-05-15T11:34:30.614Z,92400.6953
2023-05-15T11:35:33.763Z,92516.7422
2023-05-15T11:41:01.634Z,89274.6641
2023-05-15T11:42:01.753Z,86657.2812
2023-05-15T11:43:02.533Z,38117.0508
2023-05-15T11:44:33.851Z,97210.6641
2023-05-15T11:46:36.434Z,93563.0781
2023-05-15T11:50:44.235Z,89760.0000
2023-05-15T11:52:07.367Z,89586.6641
2023-05-15T13:12:24.598Z,32982.6680
2023-05-15T13:22:43.622Z,31822.6660
2023-05-15T13:23:44.699Z,32806.1523
2023-05-15T13:24:45.714Z,33795.6914
2023-05-15T13:25:46.878Z,33809.2305
2023-05-15T13:27:47.572Z,34232.6172
2023-05-15T13:28:48.387Z,34713.6016
2023-05-15T13:29:49.564Z,43480.0000
2023-05-15T13:30:50.205Z,36952.6172
2023-05-15T13:41:46.209Z,33061.5664
2023-05-15T13:42:46.821Z,33454.0781
2023-05-15T13:43:46.823Z,33669.5664
2023-05-15T13:44:47.556Z,34452.0000
2023-05-15T13:45:47.937Z,37116.3086
2023-05-15T13:46:48.924Z,39898.1836
2023-05-15T13:47:49.893Z,38722.4609
2023-05-15T13:48:51.026Z,38194.9102
2023-05-15T13:49:53.200Z,39957.8164
2023-05-15T13:50:53.883Z,42704.0000
2023-05-15T13:51:54.239Z,64196.3633
2023-05-15T13:52:56.259Z,82811.6328
2023-05-15T13:53:59.836Z,55100.3086
2023-05-15T14:01:35.637Z,36678.6680
2023-05-15T14:02:36.821Z,28008.6152
2023-05-15T14:04:07.704Z,22501.3340
2023-05-15T14:13:56.899Z,12023.4287
2023-05-15T14:14:57.534Z,12486.0000
2023-05-15T14:15:58.267Z,12939.6367
2023-05-15T14:16:59.155Z,13356.4805
2023-05-15T14:18:01.795Z,13515.2002
2023-05-15T14:29:01.028Z,10069.0771
2023-05-15T14:30:02.417Z,9152.7998
2023-05-15T14:33:06.290Z,6690.6152
2023-05-15T14:34:06.407Z,6055.6924
2023-05-15T14:35:07.096Z,5602.2402
2023-05-15T14:36:08.081Z,5199.5386
2023-05-15T14:38:09.721Z,4560.0000
2023-05-15T14:39:11.598Z,4303.1665
2023-05-15T14:40:13.653Z,4122.7827
2023-05-15T14:41:13.862Z,3997.3845
2023-05-15T14:42:15.871Z,3836.1538
2023-05-15T14:43:17.291Z,3677.0435
2023-05-15T14:44:19.497Z,3573.3845
2023-05-15T14:48:22.238Z,3583.3845
2023-05-15T14:49:22.376Z,3656.1819
2023-05-15T14:50:24.060Z,3692.8333
2023-05-15T14:51:26.388Z,3806.0869
2023-05-15T14:52:26.763Z,3901.5386
2023-05-15T14:53:28.204Z,3978.0000
2023-05-15T14:54:29.439Z,4155.1304
2023-05-15T14:55:32.116Z,4217.3335
2023-05-15T14:56:32.429Z,4311.8398
2023-05-15T14:57:34.427Z,4393.2310
2023-05-15T14:58:35.182Z,4699.3848
2023-05-15T14:59:35.615Z,4955.6924
2023-05-15T15:00:37.728Z,5221.6001
2023-05-15T15:01:38.153Z,5386.8335
2023-05-15T15:02:39.163Z,5556.8696
2023-05-15T15:03:40.522Z,5693.5386
2023-05-15T15:04:41.047Z,5824.0000
2023-05-15T15:05:41.974Z,5978.8799
2023-05-15T15:15:53.466Z,10202.1670
2023-05-15T15:16:55.287Z,10858.3076
2023-05-15T15:17:57.592Z,11507.6670
2023-05-15T15:19:59.090Z,11986.1543
2023-05-15T15:21:00.681Z,12079.3047
2023-05-15T15:23:02.968Z,12394.7695
2023-05-15T15:24:04.701Z,12755.3047
2023-05-15T15:25:05.748Z,13295.1309
2023-05-15T15:26:06.374Z,13847.4785
2023-05-15T15:27:06.685Z,14221.1670
2023-05-15T15:32:50.031Z,13093.5654
2023-05-15T15:33:51.778Z,13268.9229
2023-05-15T15:34:52.158Z,13490.6152
2023-05-15T15:35:52.251Z,13625.6670
2023-05-15T15:36:53.204Z,13723.4785
2023-05-15T15:37:53.401Z,13837.2305
2023-05-15T15:41:56.620Z,15472.3076
2023-05-15T15:42:57.355Z,15830.1670
2023-05-15T15:43:58.016Z,16110.7695
2023-05-15T15:44:59.119Z,16469.4395
2023-05-15T15:45:59.499Z,16726.3086
2023-05-15T15:47:01.579Z,16922.2227
2023-05-15T15:48:02.106Z,17143.0391
2023-05-15T15:56:24.088Z,15971.0400
2023-05-15T15:57:26.177Z,15469.3330
2023-05-15T15:58:27.181Z,14920.1543
2023-05-15T15:59:28.389Z,14163.0771
2023-05-15T16:02:32.848Z,12019.1670
2023-05-15T16:07:35.613Z,9594.4346
2023-05-15T16:08:36.226Z,9189.0771
2023-05-15T16:09:36.755Z,8742.7695
2023-05-15T16:10:37.529Z,8320.5000
2023-05-15T16:11:37.940Z,7977.0435
2023-05-15T16:12:39.064Z,7783.4780
2023-05-15T16:13:41.392Z,7641.0000
2023-05-15T16:14:42.106Z,7549.9131
2023-05-15T16:15:43.747Z,7553.3335
2023-05-15T16:16:44.908Z,7679.6523
2023-05-15T16:22:29.020Z,9610.2607
2023-05-15T16:23:30.685Z,9873.0000
2023-05-15T16:24:32.935Z,10104.3330
2023-05-15T16:25:35.144Z,10304.1670
2023-05-15T16:26:36.442Z,10502.0801
2023-05-15T16:27:36.849Z,10663.8262
2023-05-15T16:28:37.401Z,10639.8262
2023-05-15T16:29:39.122Z,10717.0000
2023-05-15T16:30:49.085Z,10821.1670
2023-05-15T16:33:13.447Z,10959.3848
2023-05-15T16:34:14.481Z,10881.0439
2023-05-15T16:35:16.779Z,10985.7598
2023-05-15T16:36:17.442Z,11364.6953
2023-05-15T16:37:19.154Z,12110.0000
2023-05-15T16:38:20.896Z,14504.0000
2023-05-15T16:39:23.143Z,27118.6660
2023-05-15T16:42:26.213Z,28182.5176
2023-05-15T16:51:30.865Z,17214.7695
2023-05-15T16:54:33.530Z,16898.6660
2023-05-15T16:55:34.980Z,16786.4609
2023-05-15T16:56:36.702Z,16444.6152
2023-05-15T16:57:37.620Z,16016.6152
2023-05-15T16:58:38.874Z,15428.6152
2023-05-15T16:59:39.350Z,14655.6797
2023-05-15T17:00:42.040Z,13924.5928
2023-05-15T17:01:43.365Z,13227.0771
2023-05-15T17:02:44.242Z,12633.0000
2023-05-15T17:03:46.191Z,12177.3848
2023-05-15T17:04:46.741Z,11763.6924
2023-05-15T17:05:48.044Z,11435.0400
2023-05-15T17:06:49.079Z,11241.2803
2023-05-15T17:07:49.247Z,11151.5195
2023-05-15T17:08:49.467Z,11048.9229
2023-05-15T17:09:51.624Z,10921.6299
2023-05-15T17:10:53.750Z,10832.1484
2023-05-15T17:11:56.495Z,10804.4443
2023-05-15T17:13:57.893Z,10787.5000
2023-05-15T17:24:09.123Z,11206.7695
2023-05-15T17:25:11.366Z,11370.2227
2023-05-15T17:26:12.326Z,11434.5596
2023-05-15T17:27:15.882Z,11437.8330
2023-05-15T17:30:18.079Z,11233.9199
2023-05-15T17:32:21.926Z,10673.3330
2023-05-15T17:33:21.986Z,11586.4346
2023-05-15T17:34:23.804Z,13325.0000
2023-05-15T17:35:26.017Z,13257.6924
2023-05-15T17:36:25.879Z,13529.0771
2023-05-15T17:37:26.738Z,13061.6670
2023-05-15T17:38:27.428Z,11797.6670
2023-05-15T17:39:28.294Z,10961.3848
2023-05-15T17:40:29.879Z,9230.7695
2023-05-15T17:41:31.742Z,9611.0000
2023-05-15T17:42:33.401Z,7710.9229
2023-05-15T17:43:33.807Z,7160.6152
2023-05-15T17:45:35.589Z,6301.5000
2023-05-15T17:46:36.822Z,6016.7998
2023-05-15T17:47:49.915Z,5808.4614
2023-05-15T17:49:09.984Z,5612.8335
2023-05-15T17:50:10.631Z,5475.5000
2023-05-15T17:51:12.073Z,5296.0000
2023-05-15T17:52:18.886Z,5133.2798
2023-05-15T17:53:14.493Z,4959.6362
2023-05-15T17:54:16.338Z,4786.7690
2023-05-15T17:55:17.848Z,4586.0000
2023-05-15T17:56:18.412Z,4402.5601
2023-05-15T17:57:19.848Z,4205.5000
2023-05-15T18:10:31.282Z,2581.7390
2023-05-15T18:11:31.849Z,2486.9565
2023-05-15T18:12:32.277Z,2394.9565
2023-05-15T18:13:32.942Z,2305.4399
2023-05-15T18:14:33.424Z,2221.0435
2023-05-15T18:15:34.559Z,2129.0435
2023-05-15T18:16:34.745Z,2042.7826
2023-05-15T18:17:36.858Z,1964.8000
2023-05-15T18:18:37.090Z,1896.7693
2023-05-15T18:27:48.120Z,1177.3334
2023-05-15T18:30:20.751Z,944.6667
2023-05-15T18:31:23.493Z,878.3077
2023-05-15T18:32:23.694Z,808.8000
2023-05-15T18:33:23.688Z,742.2609
2023-05-15T18:34:25.347Z,680.4800
2023-05-15T18:35:27.354Z,619.3333
2023-05-15T18:36:27.871Z,570.9231
2023-05-15T18:37:28.540Z,530.0000
2023-05-15T18:38:29.151Z,495.1667
2023-05-15T18:39:30.527Z,467.1667
2023-05-15T18:40:32.077Z,445.0000
2023-05-15T18:41:34.393Z,423.5000
2023-05-15T18:42:34.812Z,402.4000
2023-05-15T18:43:36.913Z,381.0370
2023-05-15T18:44:38.581Z,359.1667
2023-05-15T18:45:38.900Z,340.8696
2023-05-15T18:46:39.388Z,320.8000
2023-05-15T18:47:41.063Z,300.6400
2023-05-15T18:48:42.072Z,280.8696
2023-05-15T18:49:42.268Z,262.4348
2023-05-15T18:50:44.011Z,243.0000
2023-05-15T18:51:45.415Z,224.0000
2023-05-15T18:52:47.109Z,205.2308
2023-05-15T18:53:47.470Z,187.0769
2023-05-15T18:54:49.506Z,168.3200
2023-05-15T18:57:22.990Z,127.8333
2023-05-15T18:58:23.595Z,112.0000
2023-05-15T18:59:24.834Z,97.3333
2023-05-15T19:00:37.096Z,84.6957
2023-05-15T19:05:00.497Z,45.7600
2023-05-15T19:06:01.226Z,41.0435
2023-05-15T19:07:03.207Z,37.6667
2023-05-15T19:08:04.871Z,34.5600
2023-05-15T19:09:05.874Z,31.1667
2023-05-15T19:10:06.908Z,29.2308
2023-05-15T19:11:08.818Z,25.5000
2023-05-15T19:12:09.522Z,23.1304
2023-05-15T19:13:09.639Z,20.0000
2023-05-15T19:14:10.752Z,17.5652
2023-05-15T19:15:11.715Z,15.0000
2023-05-15T19:16:13.142Z,12.1667
2023-05-15T19:17:14.373Z,10.4348
2023-05-15T19:18:15.366Z,8.1739
2023-05-15T19:19:16.251Z,8.0000
2023-05-15T19:20:17.369Z,4.1739
2023-05-15T19:21:17.618Z,6.6087
2023-05-15T19:24:21.210Z,0.3333
2023-05-15T19:25:25.809Z,4.0000
2023-05-15T19:26:24.479Z,4.0000
2023-05-15T19:27:26.270Z,4.0000
2023-05-15T19:34:31.309Z,0.0000
2023-05-15T19:35:35.885Z,0.0000
2023-05-15T19:36:35.528Z,0.0000
2023-05-15T19:37:35.601Z,0.0000
2023-05-15T19:38:37.372Z,0.0000
2023-05-15T19:39:39.161Z,0.0000
2023-05-15T19:40:41.182Z,0.0000
2023-05-15T19:41:48.900Z,0.0000
2023-05-15T19:44:15.829Z,0.0000
2023-05-15T19:45:16.473Z,0.0000
2023-05-15T19:46:18.678Z,0.0000